KHDE/HDE METAR and TAF weather

Enter ICAO airport designator
Station Type Date Time Source
KHDE METAR 2022/06/30 13:15 UTC NOAA

KHDE 301315Z AUTO 21011KT 10SM CLR 23/13 A2994 RMK AO2 T02260132


Station Type Date Time Source
KHDE Decoded METAR 2022/06/30 13:15 UTC NOAA

Brewster Field Airport, NE, United States (KHDE) 40-27N 099-20W
Jun 30, 2022 - 09:15 AM EDT / 2022.06.30 1315 UTC
Wind: from the SSW (210 degrees) at 13 MPH (11 KT):0
Visibility: 10 mile(s):0
Sky conditions: clear
Temperature: 72.7 F (22.6 C)
Dew Point: 55.8 F (13.2 C)
Relative Humidity: 55%
Pressure (altimeter): 29.94 in. Hg (1013 hPa)
ob: KHDE 301315Z AUTO 21011KT 10SM CLR 23/13 A2994 RMK AO2 T02260132
cycle: 13

Station Type Date Time Source
KHDE TAF UTC NOAA

Error!

Example: see airport list